sensor_id;sensor_type;location;lat;lon;timestamp;pressure;altitude;pressure_sealevel;temperature;humidity
39141;BME280;24875;48.436;10.298;2023-04-12T00:01:53;95816.00;;;8.72;89.38
39141;BME280;24875;48.436;10.298;2023-04-12T00:04:20;95813.03;;;8.75;89.12
39141;BME280;24875;48.436;10.298;2023-04-12T00:06:46;95810.31;;;8.83;88.86
39141;BME280;24875;48.436;10.298;2023-04-12T00:09:14;95809.84;;;8.79;88.69
39141;BME280;24875;48.436;10.298;2023-04-12T00:11:41;95803.44;;;8.82;89.21
39141;BME280;24875;48.436;10.298;2023-04-12T00:14:07;95803.31;;;8.75;90.29
39141;BME280;24875;48.436;10.298;2023-04-12T00:16:34;95809.22;;;8.77;89.78
39141;BME280;24875;48.436;10.298;2023-04-12T00:19:02;95809.28;;;8.69;88.87
39141;BME280;24875;48.436;10.298;2023-04-12T00:21:28;95815.53;;;8.68;89.90
39141;BME280;24875;48.436;10.298;2023-04-12T00:23:55;95819.78;;;8.47;91.68
39141;BME280;24875;48.436;10.298;2023-04-12T00:26:23;95812.38;;;8.50;91.80
39141;BME280;24875;48.436;10.298;2023-04-12T00:28:50;95815.00;;;8.50;93.00
39141;BME280;24875;48.436;10.298;2023-04-12T00:31:16;95820.56;;;8.55;94.73
39141;BME280;24875;48.436;10.298;2023-04-12T00:33:43;95816.13;;;8.56;96.37
39141;BME280;24875;48.436;10.298;2023-04-12T00:36:10;95806.16;;;8.51;97.40
39141;BME280;24875;48.436;10.298;2023-04-12T00:38:36;95800.94;;;8.44;96.71
39141;BME280;24875;48.436;10.298;2023-04-12T00:41:03;95795.28;;;8.54;97.24
39141;BME280;24875;48.436;10.298;2023-04-12T00:43:31;95800.91;;;8.51;98.72
39141;BME280;24875;48.436;10.298;2023-04-12T00:45:58;95805.44;;;8.57;98.48
39141;BME280;24875;48.436;10.298;2023-04-12T00:48:25;95800.09;;;8.65;99.61
39141;BME280;24875;48.436;10.298;2023-04-12T00:50:52;95791.97;;;8.60;100.00
39141;BME280;24875;48.436;10.298;2023-04-12T00:53:20;95783.53;;;8.65;100.00
39141;BME280;24875;48.436;10.298;2023-04-12T00:55:48;95790.78;;;8.63;100.00
39141;BME280;24875;48.436;10.298;2023-04-12T00:58:15;95781.09;;;8.63;100.00
39141;BME280;24875;48.436;10.298;2023-04-12T01:00:44;95783.91;;;8.62;100.00
39141;BME280;24875;48.436;10.298;2023-04-12T01:03:14;95789.75;;;8.49;100.00
39141;BME280;24875;48.436;10.298;2023-04-12T01:05:46;95782.63;;;8.58;100.00
39141;BME280;24875;48.436;10.298;2023-04-12T01:08:23;95782.56;;;8.66;100.00
39141;BME280;24875;48.436;10.298;2023-04-12T01:10:57;95782.63;;;8.58;100.00
39141;BME280;24875;48.436;10.298;2023-04-12T01:13:30;95779.47;;;8.62;100.00
39141;BME280;24875;48.436;10.298;2023-04-12T01:16:03;95770.69;;;8.48;100.00
39141;BME280;24875;48.436;10.298;2023-04-12T01:18:36;95777.19;;;8.59;100.00
39141;BME280;24875;48.436;10.298;2023-04-12T01:21:07;95771.88;;;8.45;100.00
39141;BME280;24875;48.436;10.298;2023-04-12T01:24:02;95774.50;;;8.45;100.00
39141;BME280;24875;48.436;10.298;2023-04-12T01:26:40;95763.38;;;8.43;100.00
39141;BME280;24875;48.436;10.298;2023-04-12T01:29:12;95765.44;;;8.48;100.00
39141;BME280;24875;48.436;10.298;2023-04-12T01:31:49;95759.41;;;8.47;100.00
39141;BME280;24875;48.436;10.298;2023-04-12T01:34:16;95759.88;;;8.50;100.00
39141;BME280;24875;48.436;10.298;2023-04-12T01:36:46;95757.66;;;8.62;100.00
39141;BME280;24875;48.436;10.298;2023-04-12T01:39:13;95756.69;;;8.55;100.00
39141;BME280;24875;48.436;10.298;2023-04-12T01:41:40;95752.63;;;8.52;100.00
39141;BME280;24875;48.436;10.298;2023-04-12T01:44:13;95753.19;;;8.62;100.00
39141;BME280;24875;48.436;10.298;2023-04-12T01:46:40;95747.63;;;8.43;100.00
39141;BME280;24875;48.436;10.298;2023-04-12T01:49:08;95744.63;;;8.46;100.00
39141;BME280;24875;48.436;10.298;2023-04-12T01:51:40;95751.81;;;8.52;100.00
39141;BME280;24875;48.436;10.298;2023-04-12T01:54:12;95745.84;;;8.36;100.00
39141;BME280;24875;48.436;10.298;2023-04-12T01:56:46;95727.41;;;8.44;100.00
39141;BME280;24875;48.436;10.298;2023-04-12T01:59:17;95723.88;;;8.37;100.00
39141;BME280;24875;48.436;10.298;2023-04-12T02:01:45;95726.38;;;8.30;100.00
39141;BME280;24875;48.436;10.298;2023-04-12T02:04:13;95723.94;;;8.29;100.00
39141;BME280;24875;48.436;10.298;2023-04-12T02:06:41;95724.28;;;8.26;100.00
39141;BME280;24875;48.436;10.298;2023-04-12T02:09:08;95719.13;;;8.32;100.00
39141;BME280;24875;48.436;10.298;2023-04-12T02:11:35;95719.38;;;8.23;100.00
39141;BME280;24875;48.436;10.298;2023-04-12T02:14:01;95712.78;;;8.27;100.00
39141;BME280;24875;48.436;10.298;2023-04-12T02:16:29;95710.47;;;8.32;100.00
39141;BME280;24875;48.436;10.298;2023-04-12T02:18:56;95702.59;;;8.32;100.00
39141;BME280;24875;48.436;10.298;2023-04-12T02:21:23;95698.97;;;8.33;100.00
39141;BME280;24875;48.436;10.298;2023-04-12T02:23:50;95701.50;;;8.26;100.00
39141;BME280;24875;48.436;10.298;2023-04-12T02:26:16;95694.06;;;8.30;100.00
39141;BME280;24875;48.436;10.298;2023-04-12T02:28:43;95682.03;;;8.13;100.00
39141;BME280;24875;48.436;10.298;2023-04-12T02:31:10;95677.09;;;8.18;100.00
39141;BME280;24875;48.436;10.298;2023-04-12T02:33:38;95672.50;;;8.20;100.00
39141;BME280;24875;48.436;10.298;2023-04-12T02:36:08;95667.69;;;8.23;100.00
39141;BME280;24875;48.436;10.298;2023-04-12T02:38:35;95659.09;;;8.15;100.00
39141;BME280;24875;48.436;10.298;2023-04-12T02:41:01;95661.03;;;8.13;100.00
39141;BME280;24875;48.436;10.298;2023-04-12T02:43:28;95650.91;;;8.10;100.00
39141;BME280;24875;48.436;10.298;2023-04-12T02:45:54;95644.16;;;8.15;100.00
39141;BME280;24875;48.436;10.298;2023-04-12T02:48:21;95637.13;;;8.08;100.00
39141;BME280;24875;48.436;10.298;2023-04-12T02:50:49;95624.97;;;8.15;100.00
39141;BME280;24875;48.436;10.298;2023-04-12T02:53:15;95625.00;;;8.07;100.00
39141;BME280;24875;48.436;10.298;2023-04-12T02:55:42;95619.81;;;7.99;100.00
39141;BME280;24875;48.436;10.298;2023-04-12T02:58:08;95619.13;;;8.05;100.00
39141;BME280;24875;48.436;10.298;2023-04-12T03:00:35;95617.78;;;8.09;100.00
39141;BME280;24875;48.436;10.298;2023-04-12T03:03:01;95613.69;;;8.06;100.00
39141;BME280;24875;48.436;10.298;2023-04-12T03:05:28;95616.50;;;8.05;100.00
39141;BME280;24875;48.436;10.298;2023-04-12T03:07:56;95604.66;;;8.09;100.00
39141;BME280;24875;48.436;10.298;2023-04-12T03:10:22;95603.75;;;8.02;100.00
39141;BME280;24875;48.436;10.298;2023-04-12T03:12:49;95602.34;;;7.91;100.00
39141;BME280;24875;48.436;10.298;2023-04-12T03:15:15;95599.59;;;7.85;100.00
39141;BME280;24875;48.436;10.298;2023-04-12T03:17:42;95587.63;;;7.90;100.00
39141;BME280;24875;48.436;10.298;2023-04-12T03:20:10;95589.59;;;7.88;100.00
39141;BME280;24875;48.436;10.298;2023-04-12T03:22:37;95591.22;;;7.89;100.00
39141;BME280;24875;48.436;10.298;2023-04-12T03:25:06;95580.94;;;8.02;100.00
39141;BME280;24875;48.436;10.298;2023-04-12T03:27:33;95590.13;;;7.84;100.00
39141;BME280;24875;48.436;10.298;2023-04-12T03:30:00;95587.75;;;7.89;100.00
39141;BME280;24875;48.436;10.298;2023-04-12T03:32:26;95592.56;;;7.86;100.00
39141;BME280;24875;48.436;10.298;2023-04-12T03:34:53;95582.19;;;7.92;100.00
39141;BME280;24875;48.436;10.298;2023-04-12T03:37:19;95577.94;;;7.91;100.00
39141;BME280;24875;48.436;10.298;2023-04-12T03:39:46;95579.56;;;7.92;100.00
39141;BME280;24875;48.436;10.298;2023-04-12T03:42:14;95566.97;;;7.87;100.00
39141;BME280;24875;48.436;10.298;2023-04-12T03:44:40;95557.31;;;7.88;100.00
39141;BME280;24875;48.436;10.298;2023-04-12T03:47:07;95554.41;;;7.83;100.00
39141;BME280;24875;48.436;10.298;2023-04-12T03:49:34;95552.38;;;7.85;100.00
39141;BME280;24875;48.436;10.298;2023-04-12T03:52:03;95545.47;;;7.92;100.00
39141;BME280;24875;48.436;10.298;2023-04-12T03:54:30;95543.03;;;7.90;100.00
39141;BME280;24875;48.436;10.298;2023-04-12T03:56:57;95538.94;;;7.88;100.00
39141;BME280;24875;48.436;10.298;2023-04-12T03:59:24;95537.88;;;7.97;100.00
39141;BME280;24875;48.436;10.298;2023-04-12T04:01:51;95533.69;;;7.88;100.00
39141;BME280;24875;48.436;10.298;2023-04-12T04:04:17;95538.00;;;7.81;100.00
39141;BME280;24875;48.436;10.298;2023-04-12T04:06:45;95526.91;;;7.79;100.00
39141;BME280;24875;48.436;10.298;2023-04-12T04:09:11;95526.53;;;7.82;100.00
39141;BME280;24875;48.436;10.298;2023-04-12T04:11:38;95525.00;;;7.87;100.00
39141;BME280;24875;48.436;10.298;2023-04-12T04:14:04;95525.00;;;7.87;100.00
39141;BME280;24875;48.436;10.298;2023-04-12T04:16:32;95525.75;;;7.96;100.00
39141;BME280;24875;48.436;10.298;2023-04-12T04:18:59;95520.91;;;7.85;100.00
39141;BME280;24875;48.436;10.298;2023-04-12T04:21:25;95518.75;;;7.88;100.00
39141;BME280;24875;48.436;10.298;2023-04-12T04:23:54;95517.22;;;7.80;100.00
39141;BME280;24875;48.436;10.298;2023-04-12T04:26:22;95509.34;;;7.80;100.00
39141;BME280;24875;48.436;10.298;2023-04-12T04:28:57;95508.81;;;7.84;100.00
39141;BME280;24875;48.436;10.298;2023-04-12T04:31:26;95516.19;;;7.66;100.00
39141;BME280;24875;48.436;10.298;2023-04-12T04:34:00;95507.09;;;7.91;100.00
39141;BME280;24875;48.436;10.298;2023-04-12T04:36:27;95501.38;;;7.73;100.00
39141;BME280;24875;48.436;10.298;2023-04-12T04:38:54;95497.03;;;7.80;100.00
39141;BME280;24875;48.436;10.298;2023-04-12T04:41:21;95504.38;;;7.85;100.00
39141;BME280;24875;48.436;10.298;2023-04-12T04:43:48;95500.59;;;7.87;100.00
39141;BME280;24875;48.436;10.298;2023-04-12T04:46:15;95488.94;;;7.89;100.00
39141;BME280;24875;48.436;10.298;2023-04-12T04:48:45;95480.97;;;7.83;100.00
39141;BME280;24875;48.436;10.298;2023-04-12T04:51:13;95480.88;;;7.91;100.00
39141;BME280;24875;48.436;10.298;2023-04-12T04:53:40;95485.84;;;7.86;100.00
39141;BME280;24875;48.436;10.298;2023-04-12T04:56:07;95479.78;;;7.86;100.00
39141;BME280;24875;48.436;10.298;2023-04-12T04:58:33;95471.19;;;7.77;100.00
39141;BME280;24875;48.436;10.298;2023-04-12T05:01:00;95466.50;;;7.87;100.00
39141;BME280;24875;48.436;10.298;2023-04-12T05:03:27;95478.63;;;7.88;100.00
39141;BME280;24875;48.436;10.298;2023-04-12T05:05:54;95469.41;;;7.92;100.00
39141;BME280;24875;48.436;10.298;2023-04-12T05:08:22;95475.81;;;7.89;100.00
39141;BME280;24875;48.436;10.298;2023-04-12T05:10:49;95480.97;;;7.83;100.00
39141;BME280;24875;48.436;10.298;2023-04-12T05:13:16;95480.41;;;7.87;100.00
39141;BME280;24875;48.436;10.298;2023-04-12T05:15:43;95477.78;;;7.87;100.00
39141;BME280;24875;48.436;10.298;2023-04-12T05:18:09;95478.63;;;7.88;100.00
39141;BME280;24875;48.436;10.298;2023-04-12T05:20:36;95472.31;;;7.97;100.00
39141;BME280;24875;48.436;10.298;2023-04-12T05:23:03;95473.38;;;7.88;100.00
39141;BME280;24875;48.436;10.298;2023-04-12T05:25:30;95468.31;;;8.01;100.00
39141;BME280;24875;48.436;10.298;2023-04-12T05:27:57;95465.84;;;7.85;100.00
39141;BME280;24875;48.436;10.298;2023-04-12T05:30:24;95463.97;;;7.93;100.00
39141;BME280;24875;48.436;10.298;2023-04-12T05:32:50;95454.28;;;7.94;100.00
39141;BME280;24875;48.436;10.298;2023-04-12T05:35:17;95451.47;;;7.95;100.00
39141;BME280;24875;48.436;10.298;2023-04-12T05:37:43;95453.94;;;7.97;100.00
39141;BME280;24875;48.436;10.298;2023-04-12T05:40:10;95453.75;;;7.98;100.00
39141;BME280;24875;48.436;10.298;2023-04-12T05:42:38;95453.47;;;8.08;100.00
39141;BME280;24875;48.436;10.298;2023-04-12T05:45:05;95458.53;;;7.95;100.00
39141;BME280;24875;48.436;10.298;2023-04-12T05:47:31;95453.75;;;7.98;100.00
39141;BME280;24875;48.436;10.298;2023-04-12T05:49:58;95451.47;;;7.95;100.00
39141;BME280;24875;48.436;10.298;2023-04-12T05:52:24;95450.66;;;7.95;100.00
39141;BME280;24875;48.436;10.298;2023-04-12T05:54:51;95438.28;;;8.03;100.00
39141;BME280;24875;48.436;10.298;2023-04-12T05:57:17;95442.09;;;8.01;100.00
39141;BME280;24875;48.436;10.298;2023-04-12T05:59:45;95441.00;;;8.10;100.00
39141;BME280;24875;48.436;10.298;2023-04-12T06:02:11;95426.81;;;8.04;100.00
39141;BME280;24875;48.436;10.298;2023-04-12T06:04:38;95435.09;;;8.08;100.00
39141;BME280;24875;48.436;10.298;2023-04-12T06:07:05;95430.03;;;8.06;100.00
39141;BME280;24875;48.436;10.298;2023-04-12T06:09:32;95430.50;;;8.10;100.00
39141;BME280;24875;48.436;10.298;2023-04-12T06:11:58;95425.88;;;8.12;100.00
39141;BME280;24875;48.436;10.298;2023-04-12T06:14:26;95423.94;;;8.14;100.00
39141;BME280;24875;48.436;10.298;2023-04-12T06:16:53;95420.47;;;8.28;100.00
39141;BME280;24875;48.436;10.298;2023-04-12T06:19:20;95429.44;;;8.19;100.00
39141;BME280;24875;48.436;10.298;2023-04-12T06:21:46;95425.88;;;8.12;100.00
39141;BME280;24875;48.436;10.298;2023-04-12T06:24:13;95424.53;;;8.16;100.00
39141;BME280;24875;48.436;10.298;2023-04-12T06:26:39;95418.75;;;8.20;100.00
39141;BME280;24875;48.436;10.298;2023-04-12T06:29:07;95417.00;;;8.13;100.00
39141;BME280;24875;48.436;10.298;2023-04-12T06:31:33;95405.91;;;8.25;100.00
39141;BME280;24875;48.436;10.298;2023-04-12T06:34:01;95407.50;;;8.41;100.00
39141;BME280;24875;48.436;10.298;2023-04-12T06:36:28;95397.47;;;8.30;100.00
39141;BME280;24875;48.436;10.298;2023-04-12T06:38:54;95405.34;;;8.30;100.00
39141;BME280;24875;48.436;10.298;2023-04-12T06:41:20;95390.69;;;8.35;100.00
39141;BME280;24875;48.436;10.298;2023-04-12T06:43:47;95389.66;;;8.50;100.00
39141;BME280;24875;48.436;10.298;2023-04-12T06:46:14;95384.41;;;8.50;100.00
39141;BME280;24875;48.436;10.298;2023-04-12T06:48:42;95381.66;;;8.38;100.00
39141;BME280;24875;48.436;10.298;2023-04-12T06:51:10;95382.06;;;8.41;100.00
39141;BME280;24875;48.436;10.298;2023-04-12T06:53:37;95378.63;;;8.41;100.00
39141;BME280;24875;48.436;10.298;2023-04-12T06:56:03;95375.63;;;8.44;100.00
39141;BME280;24875;48.436;10.298;2023-04-12T06:58:30;95368.78;;;8.43;100.00
39141;BME280;24875;48.436;10.298;2023-04-12T07:01:03;95359.03;;;8.57;100.00
39141;BME280;24875;48.436;10.298;2023-04-12T07:03:30;95355.97;;;8.54;100.00
39141;BME280;24875;48.436;10.298;2023-04-12T07:05:58;95353.53;;;8.52;100.00
39141;BME280;24875;48.436;10.298;2023-04-12T07:08:27;95344.44;;;8.69;100.00
39141;BME280;24875;48.436;10.298;2023-04-12T07:10:54;95339.59;;;8.73;100.00
39141;BME280;24875;48.436;10.298;2023-04-12T07:13:21;95337.75;;;8.67;100.00
39141;BME280;24875;48.436;10.298;2023-04-12T07:15:47;95326.22;;;8.68;100.00
39141;BME280;24875;48.436;10.298;2023-04-12T07:18:14;95313.03;;;8.82;100.00
39141;BME280;24875;48.436;10.298;2023-04-12T07:20:41;95298.53;;;8.86;100.00
39141;BME280;24875;48.436;10.298;2023-04-12T07:23:07;95305.03;;;8.90;100.00
39141;BME280;24875;48.436;10.298;2023-04-12T07:25:37;95308.38;;;9.05;100.00
39141;BME280;24875;48.436;10.298;2023-04-12T07:28:03;95300.91;;;9.08;100.00
39141;BME280;24875;48.436;10.298;2023-04-12T07:30:30;95290.09;;;9.18;100.00
39141;BME280;24875;48.436;10.298;2023-04-12T07:32:57;95299.78;;;9.17;100.00
39141;BME280;24875;48.436;10.298;2023-04-12T07:35:25;95294.50;;;9.17;100.00
39141;BME280;24875;48.436;10.298;2023-04-12T07:37:52;95281.38;;;9.17;100.00
39141;BME280;24875;48.436;10.298;2023-04-12T07:40:19;95287.47;;;9.18;100.00
39141;BME280;24875;48.436;10.298;2023-04-12T07:42:47;95282.06;;;9.26;100.00
39141;BME280;24875;48.436;10.298;2023-04-12T07:45:13;95280.22;;;9.26;100.00
39141;BME280;24875;48.436;10.298;2023-04-12T07:47:40;95260.81;;;9.27;100.00
39141;BME280;24875;48.436;10.298;2023-04-12T07:50:07;95266.47;;;9.24;100.00
39141;BME280;24875;48.436;10.298;2023-04-12T07:52:34;95255.78;;;9.26;100.00
39141;BME280;24875;48.436;10.298;2023-04-12T07:55:02;95254.41;;;9.36;100.00
39141;BME280;24875;48.436;10.298;2023-04-12T07:57:28;95243.50;;;9.39;100.00
39141;BME280;24875;48.436;10.298;2023-04-12T07:59:56;95249.44;;;9.48;100.00
39141;BME280;24875;48.436;10.298;2023-04-12T08:02:23;95241.06;;;9.38;100.00
39141;BME280;24875;48.436;10.298;2023-04-12T08:04:50;95227.31;;;9.36;100.00
39141;BME280;24875;48.436;10.298;2023-04-12T08:07:16;95230.91;;;9.28;100.00
39141;BME280;24875;48.436;10.298;2023-04-12T08:09:43;95237.59;;;9.31;100.00
39141;BME280;24875;48.436;10.298;2023-04-12T08:12:09;95227.50;;;9.28;100.00
39141;BME280;24875;48.436;10.298;2023-04-12T08:14:36;95212.69;;;9.20;100.00
39141;BME280;24875;48.436;10.298;2023-04-12T08:17:04;95211.16;;;9.39;100.00
39141;BME280;24875;48.436;10.298;2023-04-12T08:19:31;95207.34;;;9.48;100.00
39141;BME280;24875;48.436;10.298;2023-04-12T08:21:57;95205.97;;;9.58;100.00
39141;BME280;24875;48.436;10.298;2023-04-12T08:24:24;95210.50;;;9.70;100.00
39141;BME280;24875;48.436;10.298;2023-04-12T08:26:50;95211.56;;;9.89;100.00
39141;BME280;24875;48.436;10.298;2023-04-12T08:29:17;95209.84;;;10.02;100.00
39141;BME280;24875;48.436;10.298;2023-04-12T08:31:44;95206.78;;;10.05;100.00
39141;BME280;24875;48.436;10.298;2023-04-12T08:34:12;95212.75;;;10.46;100.00
39141;BME280;24875;48.436;10.298;2023-04-12T08:36:39;95211.53;;;10.55;100.00
39141;BME280;24875;48.436;10.298;2023-04-12T08:39:05;95208.13;;;10.74;100.00
39141;BME280;24875;48.436;10.298;2023-04-12T08:41:32;95212.75;;;10.65;100.00
39141;BME280;24875;48.436;10.298;2023-04-12T08:43:59;95215.00;;;10.68;100.00
39141;BME280;24875;48.436;10.298;2023-04-12T08:46:26;95206.50;;;10.60;100.00
39141;BME280;24875;48.436;10.298;2023-04-12T08:48:54;95203.06;;;10.53;100.00
39141;BME280;24875;48.436;10.298;2023-04-12T11:47:46;95030.41;;;13.38;100.00
39141;BME280;24875;48.436;10.298;2023-04-12T11:50:26;95035.25;;;13.71;100.00
39141;BME280;24875;48.436;10.298;2023-04-12T11:52:53;95037.25;;;13.28;100.00
39141;BME280;24875;48.436;10.298;2023-04-12T11:55:20;95035.41;;;13.29;100.00
39141;BME280;24875;48.436;10.298;2023-04-12T11:57:49;95029.47;;;13.33;100.00
39141;BME280;24875;48.436;10.298;2023-04-12T12:00:21;95030.78;;;13.42;100.00
39141;BME280;24875;48.436;10.298;2023-04-12T12:02:51;95027.81;;;13.79;100.00
39141;BME280;24875;48.436;10.298;2023-04-12T12:05:18;95023.88;;;13.70;100.00
39141;BME280;24875;48.436;10.298;2023-04-12T12:07:45;95021.28;;;13.93;100.00
39141;BME280;24875;48.436;10.298;2023-04-12T12:10:12;95000.13;;;13.64;100.00
39141;BME280;24875;48.436;10.298;2023-04-12T12:12:41;94999.16;;;14.17;100.00
39141;BME280;24875;48.436;10.298;2023-04-12T12:15:09;94991.22;;;14.28;98.09
39141;BME280;24875;48.436;10.298;2023-04-12T12:17:36;94984.63;;;14.76;97.56
39141;BME280;24875;48.436;10.298;2023-04-12T12:20:05;94977.16;;;14.51;95.01
39141;BME280;24875;48.436;10.298;2023-04-12T12:22:33;94967.56;;;14.84;97.22
39141;BME280;24875;48.436;10.298;2023-04-12T12:24:59;94970.59;;;15.15;94.33
39141;BME280;24875;48.436;10.298;2023-04-12T12:27:33;94972.34;;;15.49;94.94
39141;BME280;24875;48.436;10.298;2023-04-12T12:30:00;94973.88;;;15.45;93.73
39141;BME280;24875;48.436;10.298;2023-04-12T12:32:32;94964.47;;;15.26;92.28
39141;BME280;24875;48.436;10.298;2023-04-12T12:34:59;94967.13;;;15.15;91.19
39141;BME280;24875;48.436;10.298;2023-04-12T12:37:28;94966.81;;;15.11;90.70
39141;BME280;24875;48.436;10.298;2023-04-12T12:40:06;94964.84;;;14.45;93.07
39141;BME280;24875;48.436;10.298;2023-04-12T12:42:36;94968.28;;;14.22;90.39
39141;BME280;24875;48.436;10.298;2023-04-12T12:45:04;94963.09;;;14.16;89.10
39141;BME280;24875;48.436;10.298;2023-04-12T12:47:31;94961.72;;;14.25;92.15
39141;BME280;24875;48.436;10.298;2023-04-12T12:49:57;94950.31;;;14.13;89.42
39141;BME280;24875;48.436;10.298;2023-04-12T12:52:24;94960.50;;;13.98;90.52
39141;BME280;24875;48.436;10.298;2023-04-12T12:54:52;94939.38;;;14.32;89.40
39141;BME280;24875;48.436;10.298;2023-04-12T12:57:18;94939.25;;;14.39;88.03
39141;BME280;24875;48.436;10.298;2023-04-12T12:59:45;94927.91;;;14.77;91.90
39141;BME280;24875;48.436;10.298;2023-04-12T13:02:11;94926.09;;;15.06;84.87
39141;BME280;24875;48.436;10.298;2023-04-12T13:04:39;94914.41;;;15.74;84.87
39141;BME280;24875;48.436;10.298;2023-04-12T13:07:06;94914.63;;;16.21;79.15
39141;BME280;24875;48.436;10.298;2023-04-12T13:09:32;94920.56;;;16.61;79.65
39141;BME280;24875;48.436;10.298;2023-04-12T13:12:00;94914.56;;;16.87;78.42
39141;BME280;24875;48.436;10.298;2023-04-12T13:14:27;94909.41;;;16.10;76.22
39141;BME280;24875;48.436;10.298;2023-04-12T13:16:54;94911.19;;;16.53;76.98
39141;BME280;24875;48.436;10.298;2023-04-12T13:19:20;94907.16;;;16.18;74.90
39141;BME280;24875;48.436;10.298;2023-04-12T13:21:47;94898.22;;;15.91;74.79
39141;BME280;24875;48.436;10.298;2023-04-12T13:24:13;94894.88;;;15.80;75.23
39141;BME280;24875;48.436;10.298;2023-04-12T13:26:40;94893.78;;;15.48;77.06
39141;BME280;24875;48.436;10.298;2023-04-12T13:29:08;94892.97;;;15.64;79.04
39141;BME280;24875;48.436;10.298;2023-04-12T13:31:35;94889.59;;;15.52;77.50
39141;BME280;24875;48.436;10.298;2023-04-12T13:34:01;94894.41;;;15.55;78.20
39141;BME280;24875;48.436;10.298;2023-04-12T13:36:28;94882.34;;;15.47;76.86
39141;BME280;24875;48.436;10.298;2023-04-12T13:38:55;94884.59;;;15.55;76.85
39141;BME280;24875;48.436;10.298;2023-04-12T13:41:21;94881.69;;;15.40;75.40
39141;BME280;24875;48.436;10.298;2023-04-12T13:43:48;94875.81;;;15.38;76.29
39141;BME280;24875;48.436;10.298;2023-04-12T13:46:16;94876.53;;;15.34;76.60
39141;BME280;24875;48.436;10.298;2023-04-12T13:48:42;94877.00;;;15.31;76.95
39141;BME280;24875;48.436;10.298;2023-04-12T13:51:09;94861.47;;;15.23;77.26
39141;BME280;24875;48.436;10.298;2023-04-12T13:53:35;94862.78;;;15.37;75.65
39141;BME280;24875;48.436;10.298;2023-04-12T13:56:02;94872.06;;;15.23;76.77
39141;BME280;24875;48.436;10.298;2023-04-12T13:58:28;94872.28;;;14.94;77.77
39141;BME280;24875;48.436;10.298;2023-04-12T14:00:55;94868.38;;;14.85;76.99
39141;BME280;24875;48.436;10.298;2023-04-12T14:03:25;94870.91;;;14.91;78.18
39141;BME280;24875;48.436;10.298;2023-04-12T14:05:51;94857.22;;;14.83;78.51
39141;BME280;24875;48.436;10.298;2023-04-12T14:08:18;94864.47;;;14.87;77.50
39141;BME280;24875;48.436;10.298;2023-04-12T14:10:44;94839.31;;;15.18;76.22
39141;BME280;24875;48.436;10.298;2023-04-12T14:13:11;94849.47;;;15.81;73.87
39141;BME280;24875;48.436;10.298;2023-04-12T14:15:37;94853.63;;;15.93;71.78
39141;BME280;24875;48.436;10.298;2023-04-12T14:18:04;94836.63;;;16.11;70.49
39141;BME280;24875;48.436;10.298;2023-04-12T14:20:32;94833.38;;;16.63;69.64
39141;BME280;24875;48.436;10.298;2023-04-12T14:22:58;94832.59;;;16.08;70.71
39141;BME280;24875;48.436;10.298;2023-04-12T14:25:25;94837.84;;;15.87;70.33
39141;BME280;24875;48.436;10.298;2023-04-12T14:27:51;94847.56;;;15.49;70.74
39141;BME280;24875;48.436;10.298;2023-04-12T14:30:18;94846.97;;;15.58;73.54
39141;BME280;24875;48.436;10.298;2023-04-12T14:32:45;94841.53;;;15.37;74.30
39141;BME280;24875;48.436;10.298;2023-04-12T14:35:11;94844.84;;;15.44;75.77
39141;BME280;24875;48.436;10.298;2023-04-12T14:37:39;94832.69;;;15.31;73.71
39141;BME280;24875;48.436;10.298;2023-04-12T14:40:07;94834.16;;;15.39;72.98
39141;BME280;24875;48.436;10.298;2023-04-12T14:42:34;94835.13;;;15.49;72.47
39141;BME280;24875;48.436;10.298;2023-04-12T14:45:01;94820.63;;;15.89;72.17
39141;BME280;24875;48.436;10.298;2023-04-12T14:47:29;94827.00;;;15.88;71.90
39141;BME280;24875;48.436;10.298;2023-04-12T14:49:56;94825.63;;;15.70;71.86
39141;BME280;24875;48.436;10.298;2023-04-12T14:52:22;94836.72;;;15.83;71.60
39141;BME280;24875;48.436;10.298;2023-04-12T14:54:50;94834.41;;;15.70;70.25
39141;BME280;24875;48.436;10.298;2023-04-12T14:57:17;94823.69;;;15.65;71.07
39141;BME280;24875;48.436;10.298;2023-04-12T14:59:44;94839.06;;;15.47;70.10
39141;BME280;24875;48.436;10.298;2023-04-12T15:02:10;94829.72;;;15.44;70.89
39141;BME280;24875;48.436;10.298;2023-04-12T15:04:37;94816.63;;;15.38;71.05
39141;BME280;24875;48.436;10.298;2023-04-12T15:07:03;94811.50;;;15.20;71.06
39141;BME280;24875;48.436;10.298;2023-04-12T15:09:30;94809.59;;;15.32;70.88
39141;BME280;24875;48.436;10.298;2023-04-12T15:11:58;94809.94;;;15.52;71.73
39141;BME280;24875;48.436;10.298;2023-04-12T15:14:26;94813.06;;;15.49;72.58
39141;BME280;24875;48.436;10.298;2023-04-12T15:16:53;94804.81;;;15.45;71.30
39141;BME280;24875;48.436;10.298;2023-04-12T15:19:20;94809.03;;;15.46;71.31
39141;BME280;24875;48.436;10.298;2023-04-12T15:21:48;94799.16;;;15.58;71.21
39141;BME280;24875;48.436;10.298;2023-04-12T15:24:15;94808.66;;;15.38;71.30
39141;BME280;24875;48.436;10.298;2023-04-12T15:26:42;94797.00;;;15.39;72.45
39141;BME280;24875;48.436;10.298;2023-04-12T15:29:10;94801.25;;;15.40;74.18
39141;BME280;24875;48.436;10.298;2023-04-12T15:31:37;94808.56;;;15.33;73.63
39141;BME280;24875;48.436;10.298;2023-04-12T15:34:04;94796.00;;;15.28;73.60
39141;BME280;24875;48.436;10.298;2023-04-12T15:36:30;94798.03;;;15.38;73.78
39141;BME280;24875;48.436;10.298;2023-04-12T15:38:59;94801.06;;;15.46;72.62
39141;BME280;24875;48.436;10.298;2023-04-12T15:41:27;94792.72;;;15.54;72.96
39141;BME280;24875;48.436;10.298;2023-04-12T15:43:58;94799.16;;;15.58;72.58
39141;BME280;24875;48.436;10.298;2023-04-12T15:46:26;94798.03;;;15.54;73.96
39141;BME280;24875;48.436;10.298;2023-04-12T15:48:53;94806.66;;;15.17;73.46